createdAt,value
2023-01-20T06:18:11.208Z,180.03
2023-01-20T06:28:11.183Z,138.70
2023-01-20T06:38:11.191Z,124.15
2023-01-20T06:48:11.160Z,177.19
2023-01-20T06:58:11.375Z,168.22
2023-01-20T07:08:11.355Z,106.90
2023-01-20T07:18:11.220Z,174.04
2023-01-20T07:28:11.481Z,176.89
2023-01-20T07:38:11.243Z,167.57
2023-01-20T07:48:11.194Z,158.52
2023-01-20T07:58:11.335Z,178.02
2023-01-20T08:08:11.327Z,180.00
2023-01-20T08:18:11.256Z,179.11
2023-01-20T08:28:11.430Z,180.00
2023-01-20T08:38:11.430Z,180.00
2023-01-20T08:48:11.677Z,180.00
2023-01-20T08:58:11.781Z,180.00
2023-01-20T09:08:11.695Z,180.00
2023-01-20T09:18:11.771Z,166.72
2023-01-20T09:28:11.873Z,170.22
2023-01-20T09:38:11.723Z,177.35
2023-01-20T09:48:11.727Z,165.05
2023-01-20T09:58:11.902Z,180.00
2023-01-20T10:08:11.766Z,180.00
2023-01-20T10:18:11.761Z,179.10
2023-01-20T10:28:11.792Z,180.00
2023-01-20T10:38:11.875Z,179.28
2023-01-20T10:48:11.685Z,172.48
2023-01-20T10:58:11.702Z,134.05
2023-01-20T11:08:11.953Z,164.83
2023-01-20T11:18:11.887Z,144.57
2023-01-20T11:28:11.813Z,136.28
2023-01-20T11:38:11.987Z,133.56
2023-01-20T11:48:11.870Z,131.60
2023-01-20T11:58:11.823Z,140.04
2023-01-20T12:08:11.874Z,177.22
2023-01-20T12:18:11.746Z,170.35
2023-01-20T12:28:11.702Z,137.89
2023-01-20T12:38:11.751Z,138.22
2023-01-20T12:48:11.705Z,143.40
2023-01-20T12:58:11.719Z,179.20
2023-01-20T13:08:12.722Z,178.18
2023-01-20T13:18:11.703Z,172.75
2023-01-20T13:28:11.792Z,158.31
2023-01-20T13:38:11.739Z,155.70
2023-01-20T13:48:11.777Z,133.02
2023-01-20T13:58:11.830Z,125.43
2023-01-20T14:08:11.726Z,134.48
2023-01-20T14:18:11.911Z,164.10
2023-01-20T14:28:11.967Z,180.00
2023-01-20T14:38:11.932Z,173.69
2023-01-20T14:48:19.131Z,120.41
2023-01-20T14:58:12.012Z,131.12
2023-01-20T15:08:12.069Z,160.16
2023-01-20T15:18:12.052Z,178.43
2023-01-20T15:28:11.852Z,173.79
2023-01-20T15:38:11.957Z,171.82
2023-01-20T15:48:11.872Z,104.97
2023-01-20T15:58:11.884Z,104.66
2023-01-20T16:08:11.905Z,157.13
2023-01-20T16:18:12.103Z,148.34
2023-01-20T16:28:12.170Z,143.37
2023-01-20T16:38:12.128Z,180.00
2023-01-20T16:48:12.061Z,105.30
2023-01-20T16:58:12.199Z,141.54
2023-01-20T17:08:12.132Z,90.00
2023-01-20T17:18:12.059Z,90.00
2023-01-20T17:28:12.004Z,90.00
2023-01-20T17:38:12.994Z,90.36
2023-01-20T17:48:12.058Z,90.00
2023-01-20T17:58:12.108Z,90.00
2023-01-20T18:08:12.046Z,90.00
2023-01-20T18:18:12.032Z,90.00
2023-01-20T18:28:12.045Z,90.00
2023-01-20T18:38:12.058Z,168.17
2023-01-20T18:48:12.051Z,180.00
2023-01-20T18:58:12.037Z,179.54
2023-01-20T19:08:12.112Z,180.00
2023-01-20T19:18:12.094Z,180.00
